Time;durP1;ratioP1;P1;durP2;ratioP2;P2;SDS_P1;SDS_P2;PMS_P1;PMS_P2;Temp;Humidity;BMP_temperature;BMP_pressure;BME280_temperature;BME280_humidity;BME280_pressure;Samples;Min_cycle;Max_cycle;Signal;HPM_P1;HPM_P2
2023/04/18 00:00:09;;;;;;;2.15;1.17;;;12.80;99.90;;;;;;6222113;22;20022;-78
2023/04/18 00:02:42;;;;;;;3.20;1.10;;;12.80;99.90;;;;;;6251694;22;20029;-77
2023/04/18 00:05:11;;;;;;;3.78;1.58;;;12.80;99.90;;;;;;6249632;22;20020;-77
2023/04/18 00:07:38;;;;;;;2.47;1.02;;;12.80;99.90;;;;;;6226597;22;20016;-77
2023/04/18 00:10:06;;;;;;;2.17;1.30;;;12.80;99.90;;;;;;6248609;22;20027;-77
2023/04/18 00:12:35;;;;;;;2.97;1.20;;;12.80;99.90;;;;;;6276244;22;20685;-77
2023/04/18 00:15:03;;;;;;;3.22;1.60;;;12.80;99.90;;;;;;6275917;22;20024;-77
2023/04/18 00:17:31;;;;;;;2.97;1.27;;;12.80;99.90;;;;;;6247624;22;20046;-77
2023/04/18 00:20:01;;;;;;;3.47;1.52;;;12.80;99.90;;;;;;6222454;22;20742;-78
2023/04/18 00:22:28;;;;;;;3.08;1.50;;;12.70;99.90;;;;;;6247203;22;20066;-78
2023/04/18 00:24:55;;;;;;;2.92;1.60;;;12.70;99.90;;;;;;6222284;22;20022;-77
2023/04/18 00:27:22;;;;;;;4.85;2.00;;;12.70;99.90;;;;;;6223313;22;20035;-78
2023/04/18 00:29:50;;;;;;;3.42;1.40;;;12.70;99.90;;;;;;6220136;22;20027;-78
2023/04/18 00:32:18;;;;;;;3.15;1.13;;;12.60;99.90;;;;;;6222641;22;20023;-77
2023/04/18 00:34:45;;;;;;;2.95;1.00;;;12.70;99.90;;;;;;6223779;22;20510;-78
2023/04/18 00:37:12;;;;;;;3.50;1.40;;;12.60;99.90;;;;;;6223541;22;20023;-77
2023/04/18 00:39:41;;;;;;;4.07;1.42;;;12.60;99.90;;;;;;6249966;22;20100;-77
2023/04/18 00:42:08;;;;;;;2.85;0.98;;;12.60;99.90;;;;;;6276844;22;20023;-77
2023/04/18 00:44:35;;;;;;;2.17;0.90;;;12.60;99.90;;;;;;6246105;22;20022;-78
2023/04/18 00:47:02;;;;;;;1.65;0.93;;;12.70;99.90;;;;;;6246164;22;20023;-78
2023/04/18 00:49:29;;;;;;;3.72;1.23;;;12.70;99.90;;;;;;6247460;22;20023;-77
2023/04/18 00:51:58;;;;;;;2.88;0.90;;;12.60;99.90;;;;;;6249009;22;20024;-77
2023/04/18 00:54:26;;;;;;;2.40;1.05;;;12.70;99.90;;;;;;6247591;22;20811;-78
2023/04/18 00:56:53;;;;;;;2.70;0.90;;;12.70;99.90;;;;;;6246814;22;20024;-78
2023/04/18 00:59:21;;;;;;;4.65;1.55;;;12.60;99.90;;;;;;6246190;22;20458;-77
2023/04/18 01:01:48;;;;;;;2.10;1.00;;;12.60;99.90;;;;;;6221562;22;20398;-77
2023/04/18 01:04:15;;;;;;;2.20;0.63;;;12.60;99.90;;;;;;6222996;22;20099;-77
2023/04/18 01:06:44;;;;;;;4.45;1.20;;;12.60;99.90;;;;;;6248472;22;20016;-77
2023/04/18 01:09:12;;;;;;;2.88;1.25;;;12.60;99.90;;;;;;6246793;22;20029;-77
2023/04/18 01:11:39;;;;;;;2.90;1.80;;;12.60;99.90;;;;;;6220942;22;20024;-77
2023/04/18 01:14:08;;;;;;;3.47;1.33;;;12.50;99.90;;;;;;6221247;22;20034;-77
2023/04/18 01:16:38;;;;;;;3.22;1.48;;;12.60;99.90;;;;;;6220518;22;20100;-77
2023/04/18 01:19:05;;;;;;;2.60;0.98;;;12.60;99.90;;;;;;6246526;22;20024;-77
2023/04/18 01:21:36;;;;;;;2.40;1.17;;;12.50;99.90;;;;;;6246888;22;20438;-77
2023/04/18 01:24:07;;;;;;;4.57;1.30;;;12.50;99.90;;;;;;6245455;22;20073;-77
2023/04/18 01:26:34;;;;;;;3.75;1.05;;;12.50;99.90;;;;;;6222147;22;20442;-77
2023/04/18 01:29:04;;;;;;;2.45;1.35;;;12.40;99.90;;;;;;6222842;22;20016;-78
2023/04/18 01:31:39;;;;;;;4.15;1.38;;;12.50;99.90;;;;;;6222063;22;20599;-79
2023/04/18 01:34:07;;;;;;;2.60;1.13;;;12.50;99.90;;;;;;6221598;22;20027;-78
2023/04/18 01:36:35;;;;;;;4.70;1.65;;;12.50;99.90;;;;;;6246927;22;20050;-77
2023/04/18 01:39:02;;;;;;;4.15;1.00;;;12.50;99.90;;;;;;6222118;22;20105;-77
2023/04/18 01:41:31;;;;;;;3.80;1.67;;;12.40;99.90;;;;;;6245755;22;20019;-78
2023/04/18 01:43:59;;;;;;;3.30;1.27;;;12.40;99.90;;;;;;6221030;22;20023;-77
2023/04/18 01:46:27;;;;;;;3.08;1.08;;;12.40;99.90;;;;;;6246388;22;20015;-78
2023/04/18 01:48:55;;;;;;;2.45;1.10;;;12.40;99.90;;;;;;6244886;22;20462;-78
2023/04/18 01:51:22;;;;;;;2.97;1.38;;;12.30;99.90;;;;;;6270284;22;20653;-77
2023/04/18 01:53:49;;;;;;;1.95;1.27;;;12.40;99.90;;;;;;6245258;22;20487;-78
2023/04/18 01:56:17;;;;;;;5.03;1.77;;;12.40;99.90;;;;;;6247787;22;20023;-77
2023/04/18 01:58:44;;;;;;;4.53;1.70;;;12.40;99.90;;;;;;6220232;22;20023;-77
2023/04/18 02:01:11;;;;;;;3.95;1.70;;;12.40;99.90;;;;;;6244660;22;20077;-78
2023/04/18 02:03:39;;;;;;;4.65;1.65;;;12.40;99.90;;;;;;6245971;22;20763;-77
2023/04/18 02:06:07;;;;;;;4.53;1.67;;;12.40;99.90;;;;;;6270941;22;20343;-77
2023/04/18 02:08:34;;;;;;;3.17;1.42;;;12.40;99.90;;;;;;6245440;22;20019;-78
2023/04/18 02:11:04;;;;;;;3.58;1.52;;;12.40;99.90;;;;;;6271086;22;20019;-78
2023/04/18 02:13:31;;;;;;;5.13;2.15;;;12.40;99.90;;;;;;6244739;22;20039;-77
2023/04/18 02:15:59;;;;;;;5.00;1.75;;;12.40;99.90;;;;;;6273071;22;20029;-77
2023/04/18 02:18:26;;;;;;;4.28;2.13;;;12.40;99.90;;;;;;6246893;22;20081;-77
2023/04/18 02:20:53;;;;;;;3.55;2.13;;;12.40;99.90;;;;;;6222284;22;20097;-77
2023/04/18 02:23:21;;;;;;;5.15;2.00;;;12.40;99.90;;;;;;6247641;22;20055;-77
2023/04/18 02:25:49;;;;;;;4.03;1.80;;;12.40;99.90;;;;;;6247941;22;20355;-77
2023/04/18 02:28:16;;;;;;;5.38;2.05;;;12.40;99.90;;;;;;6223169;22;20081;-77
2023/04/18 02:30:43;;;;;;;5.50;2.35;;;12.50;99.90;;;;;;6222942;22;20020;-79
2023/04/18 02:33:10;;;;;;;4.60;2.00;;;12.40;99.90;;;;;;6223060;22;20024;-78
2023/04/18 02:35:37;;;;;;;5.70;2.63;;;12.30;99.90;;;;;;6221316;22;20730;-78
2023/04/18 02:38:05;;;;;;;5.60;2.13;;;12.20;99.90;;;;;;6222099;22;20015;-78
2023/04/18 02:40:32;;;;;;;4.43;2.33;;;12.10;99.90;;;;;;6222767;22;20726;-77
2023/04/18 02:43:00;;;;;;;4.72;2.25;;;12.20;99.90;;;;;;6222056;22;20030;-78
2023/04/18 02:45:28;;;;;;;5.63;2.15;;;12.10;99.90;;;;;;6221830;22;20120;-78
2023/04/18 02:47:58;;;;;;;5.05;2.67;;;12.10;99.90;;;;;;6223093;22;20023;-77
2023/04/18 02:50:25;;;;;;;6.97;3.28;;;12.10;99.90;;;;;;6220857;22;20027;-77
2023/04/18 02:52:54;;;;;;;5.78;3.28;;;12.10;99.90;;;;;;6222525;22;20466;-77
2023/04/18 02:55:26;;;;;;;4.68;2.67;;;12.10;99.90;;;;;;6222371;22;20027;-78
2023/04/18 02:57:56;;;;;;;6.90;3.00;;;12.10;99.90;;;;;;6248102;22;20022;-78
2023/04/18 03:00:57;;;;;;;5.70;2.42;;;12.10;99.90;;;;;;6228286;22;20351;-78
2023/04/18 03:03:45;;;;;;;4.20;2.13;;;12.00;99.90;;;;;;6225694;22;20104;-78
2023/04/18 03:06:35;;;;;;;4.88;2.72;;;12.10;99.90;;;;;;6238877;22;20486;-78
2023/04/18 03:09:03;;;;;;;5.38;2.65;;;12.10;99.90;;;;;;6245408;22;20019;-77
2023/04/18 03:11:33;;;;;;;4.75;2.40;;;12.00;99.90;;;;;;6221424;22;20458;-78
2023/04/18 03:14:00;;;;;;;5.93;2.75;;;12.00;99.90;;;;;;6245444;22;20103;-77
2023/04/18 03:16:34;;;;;;;6.55;2.85;;;11.90;99.90;;;;;;6245667;22;20023;-77
2023/04/18 03:19:03;;;;;;;6.38;3.10;;;11.90;99.90;;;;;;6220586;22;20203;-78
2023/04/18 03:21:30;;;;;;;5.20;2.20;;;12.00;99.90;;;;;;6220979;22;20020;-77
2023/04/18 03:23:58;;;;;;;5.35;2.60;;;12.00;99.90;;;;;;6220939;22;20435;-78
2023/04/18 03:26:25;;;;;;;8.23;3.17;;;11.90;99.90;;;;;;6219886;22;20028;-77
2023/04/18 03:28:54;;;;;;;6.30;3.25;;;12.00;99.90;;;;;;6221364;22;20024;-78
2023/04/18 03:31:21;;;;;;;6.07;2.90;;;12.00;99.90;;;;;;6245547;22;20015;-78
2023/04/18 03:33:50;;;;;;;6.35;2.67;;;12.00;99.90;;;;;;6220866;22;20024;-78
2023/04/18 03:36:24;;;;;;;6.30;3.05;;;12.00;99.90;;;;;;6222042;22;20755;-77
2023/04/18 03:38:53;;;;;;;6.25;3.05;;;11.90;99.90;;;;;;6247222;22;20749;-78
2023/04/18 03:41:20;;;;;;;6.63;2.80;;;11.90;99.90;;;;;;6221925;22;20016;-77
2023/04/18 03:43:47;;;;;;;7.78;3.20;;;11.90;99.90;;;;;;6224155;22;20047;-77
2023/04/18 03:46:16;;;;;;;6.53;2.85;;;12.00;99.90;;;;;;6249759;22;20022;-77
2023/04/18 03:48:44;;;;;;;6.82;2.90;;;12.00;99.90;;;;;;6249635;22;20024;-77
2023/04/18 03:51:11;;;;;;;7.20;2.75;;;12.00;99.90;;;;;;6248523;22;20019;-79
2023/04/18 03:53:38;;;;;;;8.73;3.53;;;12.00;99.90;;;;;;6223846;22;20226;-78
2023/04/18 03:56:05;;;;;;;7.38;3.42;;;11.90;99.90;;;;;;6223161;22;20024;-78
2023/04/18 03:58:53;;;;;;;5.90;3.00;;;11.90;99.90;;;;;;6226597;22;20019;-77
2023/04/18 04:01:21;;;;;;;7.50;3.20;;;11.90;99.90;;;;;;6247420;22;20023;-78
2023/04/18 04:03:50;;;;;;;5.72;2.88;;;11.90;99.90;;;;;;6248907;22;20071;-78
2023/04/18 04:06:17;;;;;;;7.80;2.92;;;11.90;99.90;;;;;;6224224;22;20042;-77
2023/04/18 04:08:45;;;;;;;8.10;3.10;;;12.00;99.90;;;;;;6249455;22;20051;-79
2023/04/18 04:11:14;;;;;;;6.25;2.95;;;11.90;99.90;;;;;;6222734;22;20034;-77
2023/04/18 04:13:41;;;;;;;5.53;2.70;;;11.90;99.90;;;;;;6247938;22;20592;-77
2023/04/18 04:16:08;;;;;;;5.28;2.42;;;11.90;99.90;;;;;;6246884;22;20701;-77
2023/04/18 04:18:36;;;;;;;4.85;2.22;;;12.00;99.90;;;;;;6249335;22;20351;-78
2023/04/18 04:21:04;;;;;;;6.10;2.60;;;11.90;99.90;;;;;;6223249;22;20717;-78
2023/04/18 04:23:50;;;;;;;7.45;3.67;;;11.90;99.90;;;;;;6227357;22;20024;-79
2023/04/18 04:26:33;;;;;;;8.93;4.07;;;11.90;99.90;;;;;;6246112;22;20024;-77
2023/04/18 04:29:05;;;;;;;6.43;2.85;;;11.90;99.90;;;;;;6244453;22;20653;-79
2023/04/18 04:31:33;;;;;;;7.10;2.90;;;11.80;99.90;;;;;;6247867;22;20031;-78
2023/04/18 04:34:00;;;;;;;7.68;2.60;;;11.90;99.90;;;;;;6248641;22;20031;-78
2023/04/18 04:36:27;;;;;;;9.13;3.67;;;11.90;99.90;;;;;;6247416;22;20023;-77
2023/04/18 04:38:57;;;;;;;5.53;2.83;;;11.90;99.90;;;;;;6246747;22;20016;-78
2023/04/18 04:41:36;;;;;;;6.65;2.80;;;11.90;99.90;;;;;;6250244;22;20678;-78
2023/04/18 04:44:04;;;;;;;6.47;2.72;;;11.90;99.90;;;;;;6223513;22;20333;-77
2023/04/18 04:46:32;;;;;;;5.50;2.55;;;11.90;99.90;;;;;;6227027;22;20031;-78
2023/04/18 04:49:04;;;;;;;5.50;2.45;;;11.90;99.90;;;;;;6250784;22;20482;-78
2023/04/18 04:51:32;;;;;;;6.13;3.00;;;11.90;99.90;;;;;;6249551;22;20649;-77
2023/04/18 04:53:59;;;;;;;6.85;3.03;;;11.90;99.90;;;;;;6223438;22;20073;-78
2023/04/18 04:56:26;;;;;;;7.93;4.03;;;11.90;99.90;;;;;;6247363;22;20047;-77
2023/04/18 04:58:54;;;;;;;8.13;3.80;;;11.90;99.90;;;;;;6248649;22;20019;-77
2023/04/18 05:01:54;;;;;;;8.55;3.92;;;11.90;99.90;;;;;;6223009;22;20020;-77
2023/04/18 05:04:24;;;;;;;7.38;3.22;;;11.90;99.90;;;;;;6184594;23;20027;-77
2023/04/18 05:06:52;;;;;;;7.07;3.08;;;11.90;99.90;;;;;;6186880;23;20778;-77
2023/04/18 05:09:19;;;;;;;8.43;3.95;;;11.90;99.90;;;;;;6184228;23;20066;-77
2023/04/18 05:11:48;;;;;;;6.68;3.05;;;11.90;99.90;;;;;;6184396;23;20025;-79
2023/04/18 05:14:16;;;;;;;8.02;3.40;;;11.90;99.90;;;;;;6158788;23;20036;-77
2023/04/18 05:16:43;;;;;;;8.02;3.83;;;11.90;99.90;;;;;;6181631;23;20424;-77
2023/04/18 05:19:10;;;;;;;9.45;3.70;;;11.90;99.90;;;;;;6159120;23;20043;-77
2023/04/18 05:21:37;;;;;;;8.45;4.38;;;11.90;99.90;;;;;;6185429;23;20042;-78
2023/04/18 05:24:04;;;;;;;9.35;4.10;;;11.80;99.90;;;;;;6184590;23;20824;-78
2023/04/18 05:26:31;;;;;;;8.00;3.90;;;11.70;99.90;;;;;;6184732;23;20031;-77
2023/04/18 05:28:58;;;;;;;10.20;4.90;;;11.80;99.90;;;;;;6185895;23;20025;-77
2023/04/18 05:31:26;;;;;;;12.30;6.05;;;11.80;99.90;;;;;;6159336;23;20031;-78
2023/04/18 05:33:53;;;;;;;10.55;5.50;;;11.90;99.90;;;;;;6184631;23;20036;-79
2023/04/18 05:36:21;;;;;;;10.95;5.95;;;11.90;99.90;;;;;;6213177;22;20794;-78
2023/04/18 05:38:48;;;;;;;11.07;5.38;;;11.90;99.90;;;;;;6271806;22;20070;-77
2023/04/18 05:41:15;;;;;;;10.00;5.30;;;11.90;99.90;;;;;;6242066;22;20494;-78
2023/04/18 05:43:42;;;;;;;10.23;4.70;;;11.90;99.90;;;;;;6206732;22;20215;-77
2023/04/18 05:46:20;;;;;;;11.13;4.10;;;11.90;99.90;;;;;;6207709;22;20047;-77
2023/04/18 05:48:47;;;;;;;8.52;4.30;;;12.00;99.90;;;;;;6206014;22;20023;-78
2023/04/18 05:51:14;;;;;;;7.95;3.72;;;12.00;99.90;;;;;;6205269;22;20297;-77
2023/04/18 05:53:41;;;;;;;7.95;4.15;;;12.10;99.90;;;;;;6235588;22;20023;-77
2023/04/18 05:56:08;;;;;;;9.07;3.70;;;12.10;99.90;;;;;;6213111;22;20024;-77
2023/04/18 05:58:35;;;;;;;8.45;3.53;;;12.20;99.90;;;;;;6213379;22;20184;-77
2023/04/18 06:01:03;;;;;;;6.68;3.08;;;12.20;99.90;;;;;;6209627;22;20019;-78
2023/04/18 06:03:30;;;;;;;10.30;4.43;;;12.20;99.90;;;;;;6208303;22;20085;-77
2023/04/18 06:05:57;;;;;;;9.27;4.15;;;12.20;99.90;;;;;;6207996;22;20026;-78
2023/04/18 06:08:25;;;;;;;8.70;4.57;;;12.30;99.90;;;;;;6212915;22;20055;-77
2023/04/18 06:10:52;;;;;;;9.10;4.10;;;12.40;99.90;;;;;;6213332;22;20023;-79
2023/04/18 06:13:19;;;;;;;7.63;4.25;;;12.40;99.90;;;;;;6216012;22;20066;-77
2023/04/18 06:15:46;;;;;;;7.70;4.10;;;12.40;99.90;;;;;;6232831;22;20022;-78
2023/04/18 06:18:13;;;;;;;6.75;3.30;;;12.50;99.90;;;;;;6233574;22;20419;-78
2023/04/18 06:20:42;;;;;;;8.07;3.45;;;12.60;99.90;;;;;;6209216;22;20026;-78
2023/04/18 06:23:09;;;;;;;5.40;2.75;;;12.60;99.90;;;;;;6207257;22;20019;-77
2023/04/18 06:25:37;;;;;;;6.70;3.10;;;12.70;99.90;;;;;;6236279;22;20028;-77
2023/04/18 06:28:05;;;;;;;6.82;2.60;;;12.80;99.90;;;;;;6207541;22;20814;-78
2023/04/18 06:30:32;;;;;;;5.97;2.50;;;12.80;99.90;;;;;;6232096;22;20710;-77
2023/04/18 06:32:59;;;;;;;7.47;3.00;;;12.90;99.90;;;;;;6232460;22;20069;-77
2023/04/18 06:35:29;;;;;;;7.28;2.95;;;13.00;99.90;;;;;;6206606;22;20539;-78
2023/04/18 06:37:56;;;;;;;6.93;2.90;;;13.00;99.90;;;;;;6258975;22;20103;-77
2023/04/18 06:40:23;;;;;;;6.55;2.85;;;13.10;99.90;;;;;;6206979;22;20020;-77
2023/04/18 06:42:50;;;;;;;5.57;2.15;;;13.30;99.90;;;;;;6206106;22;20027;-78
2023/04/18 06:45:18;;;;;;;7.28;2.55;;;13.30;99.90;;;;;;6206922;22;20359;-78
2023/04/18 06:47:46;;;;;;;6.32;2.65;;;13.30;99.90;;;;;;6233270;22;20027;-77
2023/04/18 06:50:14;;;;;;;4.50;1.88;;;13.40;99.90;;;;;;6210065;22;20340;-78
2023/04/18 06:52:44;;;;;;;4.45;1.67;;;13.40;99.90;;;;;;6232046;22;20031;-78
2023/04/18 06:55:12;;;;;;;3.72;1.33;;;13.50;99.90;;;;;;6210608;22;20138;-77
2023/04/18 06:57:40;;;;;;;4.00;1.45;;;13.50;99.90;;;;;;6233067;22;20046;-77
2023/04/18 07:00:09;;;;;;;4.40;0.47;;;13.60;99.90;;;;;;6232311;22;20332;-78
2023/04/18 07:02:37;;;;;;;2.08;0.73;;;13.60;99.90;;;;;;6206348;22;20346;-77
2023/04/18 07:05:05;;;;;;;1.40;0.50;;;13.60;99.90;;;;;;6237401;22;20019;-79
2023/04/18 07:07:34;;;;;;;2.20;0.70;;;13.60;99.50;;;;;;6234828;22;20020;-79
2023/04/18 07:10:01;;;;;;;3.10;0.60;;;13.70;99.90;;;;;;6207991;22;20467;-77
2023/04/18 07:12:28;;;;;;;2.35;0.70;;;13.80;99.40;;;;;;6229474;22;20063;-77
2023/04/18 07:14:55;;;;;;;1.70;0.50;;;13.80;98.90;;;;;;6232260;22;20024;-77
2023/04/18 07:17:22;;;;;;;1.92;0.60;;;13.90;98.60;;;;;;6210304;22;20030;-78
2023/04/18 07:19:49;;;;;;;2.13;0.70;;;14.00;98.20;;;;;;6233818;22;20430;-77
2023/04/18 07:22:16;;;;;;;2.60;0.38;;;14.10;98.20;;;;;;6235402;22;20023;-76
2023/04/18 07:24:43;;;;;;;2.95;0.50;;;14.20;97.80;;;;;;6235388;22;20019;-77
2023/04/18 07:27:10;;;;;;;1.50;0.40;;;14.20;96.10;;;;;;6235922;22;20411;-77
2023/04/18 07:29:37;;;;;;;0.85;0.30;;;14.40;96.80;;;;;;6233738;22;20034;-77
2023/04/18 07:32:04;;;;;;;0.80;0.20;;;14.40;96.00;;;;;;6212292;22;20031;-77
2023/04/18 07:34:35;;;;;;;1.15;0.45;;;14.60;94.70;;;;;;6207759;22;20050;-76
2023/04/18 07:37:02;;;;;;;3.80;0.30;;;14.70;93.60;;;;;;6258554;22;20038;-77
2023/04/18 07:39:34;;;;;;;1.60;0.30;;;15.00;93.90;;;;;;6208670;22;20479;-77
2023/04/18 07:42:03;;;;;;;2.65;0.30;;;15.10;92.70;;;;;;6208008;22;20028;-77
2023/04/18 07:44:30;;;;;;;3.22;0.50;;;15.10;92.30;;;;;;6207443;22;20023;-78
2023/04/18 07:46:57;;;;;;;1.38;0.20;;;15.10;91.70;;;;;;6258618;22;20093;-78
2023/04/18 07:49:24;;;;;;;0.70;0.40;;;15.10;92.00;;;;;;6233583;22;20341;-76
2023/04/18 07:51:52;;;;;;;5.75;0.30;;;15.10;92.20;;;;;;6233151;22;20051;-77
2023/04/18 07:54:19;;;;;;;1.67;0.20;;;15.00;90.70;;;;;;6208310;22;20035;-76
2023/04/18 07:56:46;;;;;;;1.65;0.50;;;14.90;91.10;;;;;;6233258;22;20653;-77
2023/04/18 07:59:13;;;;;;;0.85;0.20;;;14.90;89.40;;;;;;6230366;22;20023;-77
2023/04/18 08:01:40;;;;;;;2.08;0.40;;;14.90;89.10;;;;;;6241473;22;20024;-77
2023/04/18 08:04:07;;;;;;;1.15;0.25;;;14.90;90.00;;;;;;6206509;22;20107;-77
2023/04/18 08:06:35;;;;;;;0.47;0.22;;;14.90;90.10;;;;;;6206698;22;20119;-78
2023/04/18 08:09:04;;;;;;;1.08;0.30;;;14.80;90.00;;;;;;6203411;22;20406;-77
2023/04/18 08:11:32;;;;;;;1.90;0.20;;;14.90;90.20;;;;;;6204436;22;20136;-77
2023/04/18 08:14:00;;;;;;;3.40;0.40;;;14.80;90.00;;;;;;6232351;22;20034;-77
2023/04/18 08:16:27;;;;;;;2.35;0.30;;;14.90;90.20;;;;;;6232880;22;20030;-78
2023/04/18 08:18:54;;;;;;;2.58;0.40;;;15.10;90.10;;;;;;6237970;22;20012;-77
2023/04/18 08:21:21;;;;;;;1.17;0.22;;;15.70;89.00;;;;;;6208558;22;20024;-77
2023/04/18 08:23:49;;;;;;;3.25;0.50;;;16.10;89.40;;;;;;6205229;22;20023;-77
2023/04/18 08:26:16;;;;;;;2.58;0.30;;;16.10;88.20;;;;;;6205242;22;20024;-77
2023/04/18 08:28:43;;;;;;;1.60;0.40;;;16.00;87.90;;;;;;6233176;22;20447;-78
2023/04/18 08:31:15;;;;;;;4.35;0.68;;;16.10;88.60;;;;;;6231147;22;20023;-76
2023/04/18 08:33:42;;;;;;;1.45;0.50;;;16.20;87.10;;;;;;6230906;22;20032;-76
2023/04/18 08:36:10;;;;;;;2.38;0.28;;;16.70;89.10;;;;;;6207025;22;20028;-77
2023/04/18 08:38:37;;;;;;;1.83;0.70;;;16.50;87.80;;;;;;6232578;22;20125;-79
2023/04/18 08:41:05;;;;;;;1.48;0.40;;;16.30;86.50;;;;;;6209066;22;20020;-76
2023/04/18 08:43:32;;;;;;;1.13;0.25;;;16.20;83.70;;;;;;6232543;22;20097;-77
2023/04/18 08:46:00;;;;;;;0.73;0.20;;;16.00;81.40;;;;;;6232776;22;20418;-77
2023/04/18 08:48:28;;;;;;;3.60;0.50;;;16.10;79.90;;;;;;6232171;22;20034;-76
2023/04/18 08:50:58;;;;;;;0.40;0.10;;;16.20;81.10;;;;;;6206199;22;20016;-77
2023/04/18 08:53:26;;;;;;;2.38;0.20;;;16.00;77.00;;;;;;6230820;22;20025;-78
2023/04/18 08:55:59;;;;;;;2.10;0.43;;;16.00;75.50;;;;;;6206270;22;20107;-78
2023/04/18 08:58:26;;;;;;;0.60;0.10;;;16.10;74.20;;;;;;6206513;22;20019;-77
2023/04/18 09:00:54;;;;;;;1.58;0.17;;;16.70;73.30;;;;;;6231374;22;20015;-77
2023/04/18 09:03:41;;;;;;;0.50;0.22;;;17.20;73.90;;;;;;6206602;22;20345;-78
2023/04/18 09:06:17;;;;;;;0.80;0.20;;;17.50;71.10;;;;;;6256078;22;20027;-77
2023/04/18 09:08:56;;;;;;;1.23;0.20;;;17.70;70.30;;;;;;6229414;22;20031;-77
2023/04/18 09:11:28;;;;;;;0.77;0.28;;;17.60;70.80;;;;;;6245943;22;20438;-79
2023/04/18 09:13:58;;;;;;;1.45;0.40;;;17.50;70.90;;;;;;6258355;22;20025;-76
2023/04/18 09:16:26;;;;;;;0.93;0.10;;;17.50;72.10;;;;;;6220758;22;20463;-77
2023/04/18 09:19:17;;;;;;;2.75;0.20;;;17.90;72.30;;;;;;6229139;22;20020;-77
2023/04/18 09:21:47;;;;;;;0.90;0.28;;;18.00;71.50;;;;;;6207588;22;20020;-77
2023/04/18 09:24:22;;;;;;;1.70;0.20;;;17.90;70.10;;;;;;6207532;22;20132;-77
2023/04/18 09:26:52;;;;;;;1.85;0.32;;;18.20;71.60;;;;;;6259311;22;20391;-76
2023/04/18 09:29:21;;;;;;;0.70;0.25;;;18.30;69.10;;;;;;6231168;22;20020;-77
2023/04/18 09:31:56;;;;;;;1.98;0.22;;;18.10;68.70;;;;;;6235646;22;20020;-77
2023/04/18 09:34:25;;;;;;;2.80;0.17;;;17.90;69.30;;;;;;6263167;22;20030;-76
2023/04/18 09:37:11;;;;;;;1.77;0.20;;;17.70;70.00;;;;;;6207959;22;20497;-77
2023/04/18 09:39:40;;;;;;;1.98;0.20;;;17.70;69.50;;;;;;6235410;22;20019;-77
2023/04/18 09:42:07;;;;;;;1.15;0.17;;;17.60;71.00;;;;;;6241830;22;20438;-76
2023/04/18 09:44:34;;;;;;;3.22;0.45;;;17.50;71.70;;;;;;6231723;22;20755;-77
2023/04/18 09:47:01;;;;;;;2.00;0.20;;;17.50;70.60;;;;;;6206394;22;20034;-76
2023/04/18 09:49:28;;;;;;;1.33;0.10;;;17.40;70.00;;;;;;6232409;22;20023;-77
2023/04/18 09:51:56;;;;;;;1.27;0.38;;;17.40;70.80;;;;;;6206841;22;20379;-77
2023/04/18 09:54:24;;;;;;;1.70;0.20;;;18.10;68.90;;;;;;6231372;22;20027;-77
2023/04/18 09:56:53;;;;;;;0.50;0.20;;;18.70;67.10;;;;;;6259134;22;20101;-76
2023/04/18 09:59:41;;;;;;;0.63;0.20;;;18.90;67.30;;;;;;6182814;22;20019;-78
2023/04/18 10:02:19;;;;;;;0.98;0.30;;;18.60;65.80;;;;;;6234216;22;20020;-77
2023/04/18 10:04:48;;;;;;;1.08;0.40;;;18.80;64.60;;;;;;6230684;22;20047;-76
2023/04/18 10:07:16;;;;;;;1.17;0.20;;;19.10;65.60;;;;;;6232354;22;20275;-77
2023/04/18 10:09:48;;;;;;;2.28;0.20;;;19.00;64.90;;;;;;6230891;22;20614;-77
2023/04/18 10:12:17;;;;;;;2.67;0.13;;;19.10;65.70;;;;;;6230704;22;20023;-77
2023/04/18 10:14:45;;;;;;;2.58;0.20;;;19.50;64.80;;;;;;6232016;22;20344;-77
2023/04/18 10:17:13;;;;;;;1.02;0.20;;;19.30;62.00;;;;;;6256209;22;20030;-76
2023/04/18 10:19:43;;;;;;;1.00;0.10;;;19.40;61.80;;;;;;6234925;22;20214;-77
2023/04/18 10:22:11;;;;;;;0.82;0.10;;;19.40;61.90;;;;;;6257249;22;20016;-78
2023/04/18 10:24:46;;;;;;;4.28;0.52;;;19.50;63.30;;;;;;6207185;22;20023;-78
2023/04/18 10:27:17;;;;;;;1.95;0.38;;;19.30;64.00;;;;;;6231432;22;20032;-76
2023/04/18 10:29:50;;;;;;;1.42;0.20;;;18.90;63.00;;;;;;6208588;22;20031;-77
2023/04/18 10:32:23;;;;;;;1.85;0.20;;;18.70;62.80;;;;;;6234765;22;20034;-77
2023/04/18 10:34:52;;;;;;;2.13;0.20;;;18.60;62.70;;;;;;6234203;22;20407;-79
2023/04/18 10:37:19;;;;;;;1.02;0.20;;;18.60;62.30;;;;;;6232845;22;20046;-77
2023/04/18 10:39:52;;;;;;;1.80;0.20;;;18.50;62.70;;;;;;6234047;22;20011;-77
2023/04/18 10:42:45;;;;;;;1.90;0.40;;;18.60;63.30;;;;;;6232804;22;20085;-77
2023/04/18 10:45:20;;;;;;;2.05;0.20;;;18.60;62.10;;;;;;6261063;22;20050;-77
2023/04/18 10:47:47;;;;;;;1.50;0.20;;;18.80;63.40;;;;;;6233537;22;20337;-77
2023/04/18 10:50:15;;;;;;;2.15;0.30;;;18.80;63.00;;;;;;6235409;22;20024;-76
2023/04/18 10:52:43;;;;;;;2.95;0.20;;;19.20;63.30;;;;;;6237494;22;20024;-77
2023/04/18 10:55:18;;;;;;;2.15;0.30;;;19.10;62.70;;;;;;6210657;22;20023;-77
2023/04/18 10:57:50;;;;;;;1.60;0.10;;;18.90;62.20;;;;;;6234639;22;20045;-77
2023/04/18 11:00:20;;;;;;;6.05;0.30;;;18.90;61.80;;;;;;6234921;22;20016;-77
2023/04/18 11:02:52;;;;;;;2.50;0.20;;;18.90;62.50;;;;;;6260499;22;20016;-77
2023/04/18 11:05:25;;;;;;;2.72;0.20;;;18.80;60.90;;;;;;6259778;22;20016;-76
2023/04/18 11:07:53;;;;;;;1.33;0.10;;;18.80;61.00;;;;;;6260661;22;20091;-76
2023/04/18 11:10:25;;;;;;;0.90;0.20;;;18.90;59.30;;;;;;6235089;22;20081;-77
2023/04/18 11:12:54;;;;;;;2.17;0.20;;;18.90;59.20;;;;;;6235702;22;20351;-77
2023/04/18 11:15:23;;;;;;;2.50;0.93;;;18.90;60.00;;;;;;6233213;22;20487;-75
2023/04/18 11:18:03;;;;;;;1.77;0.17;;;18.80;59.10;;;;;;6259700;22;20027;-78
2023/04/18 11:20:38;;;;;;;3.03;0.65;;;18.80;58.00;;;;;;6232184;22;20394;-77
2023/04/18 11:23:20;;;;;;;2.63;0.40;;;18.80;56.90;;;;;;6232299;22;20016;-78
2023/04/18 11:25:53;;;;;;;3.17;0.32;;;19.10;56.80;;;;;;6233092;22;20024;-77
2023/04/18 11:28:21;;;;;;;4.32;0.20;;;18.80;55.30;;;;;;6234097;22;20102;-78
2023/04/18 11:30:48;;;;;;;2.72;0.50;;;18.80;55.10;;;;;;6232832;22;20027;-78
2023/04/18 11:33:16;;;;;;;1.08;0.22;;;18.90;53.80;;;;;;6207389;22;20434;-76
2023/04/18 11:35:44;;;;;;;1.63;0.45;;;18.80;55.00;;;;;;6259512;22;20027;-76
2023/04/18 11:38:14;;;;;;;2.97;0.20;;;19.20;55.90;;;;;;6259906;22;20043;-76
2023/04/18 11:40:48;;;;;;;2.38;0.20;;;19.20;56.00;;;;;;6209014;22;20023;-76
2023/04/18 11:43:24;;;;;;;1.98;0.15;;;19.10;56.40;;;;;;6232546;22;20280;-77
2023/04/18 11:45:58;;;;;;;1.48;0.47;;;19.40;58.50;;;;;;6260382;22;20108;-77
2023/04/18 11:48:36;;;;;;;2.55;0.40;;;19.40;57.30;;;;;;6232429;22;20020;-77
2023/04/18 11:51:05;;;;;;;1.27;0.28;;;19.80;57.10;;;;;;6259528;22;20070;-76
2023/04/18 11:53:37;;;;;;;1.48;0.30;;;19.80;57.70;;;;;;6231601;22;20379;-76
2023/04/18 11:56:05;;;;;;;0.88;0.20;;;19.60;57.20;;;;;;6230544;22;20028;-78
2023/04/18 11:58:33;;;;;;;3.42;0.30;;;19.50;55.90;;;;;;6259184;22;20573;-77
2023/04/18 12:01:21;;;;;;;0.82;0.20;;;19.20;55.20;;;;;;6231292;22;20030;-77
2023/04/18 12:04:07;;;;;;;2.85;0.47;;;19.20;54.90;;;;;;6261560;22;20109;-79
2023/04/18 12:06:45;;;;;;;0.30;0.10;;;19.60;50.70;;;;;;6233720;22;20043;-77
2023/04/18 12:09:14;;;;;;;1.00;0.10;;;19.90;50.40;;;;;;6259380;22;20071;-76
2023/04/18 12:11:41;;;;;;;1.45;0.10;;;20.10;48.10;;;;;;6257054;22;20022;-77
2023/04/18 12:14:21;;;;;;;1.05;0.20;;;20.10;48.40;;;;;;6232481;22;20030;-78
2023/04/18 12:16:49;;;;;;;2.15;0.20;;;20.10;50.20;;;;;;6207183;22;20020;-76
2023/04/18 12:19:19;;;;;;;0.80;0.20;;;20.00;53.00;;;;;;6233029;22;20362;-76
2023/04/18 12:22:01;;;;;;;0.90;0.10;;;20.30;52.70;;;;;;6257672;22;20342;-77
2023/04/18 12:24:29;;;;;;;;;;;20.60;47.40;;;;;;6203691;22;20515;-77
2023/04/18 12:26:56;;;;;;;5.78;0.68;;;20.30;45.20;;;;;;6231053;22;19915;-76
2023/04/18 12:29:28;;;;;;;1.27;0.20;;;19.80;44.80;;;;;;6256008;22;20019;-77
2023/04/18 12:31:55;;;;;;;1.58;0.20;;;19.70;47.60;;;;;;6231105;22;20026;-77
2023/04/18 12:34:23;;;;;;;0.68;0.20;;;19.40;48.90;;;;;;6228679;22;20019;-77
2023/04/18 12:36:50;;;;;;;2.50;0.20;;;19.30;50.60;;;;;;6233935;22;20022;-77
2023/04/18 12:39:17;;;;;;;4.78;0.80;;;19.10;49.20;;;;;;6205629;22;20016;-76
2023/04/18 12:41:44;;;;;;;3.58;0.45;;;19.10;49.40;;;;;;6238336;22;20012;-77
2023/04/18 12:44:14;;;;;;;1.00;0.20;;;18.90;49.50;;;;;;6237772;22;20027;-78
2023/04/18 12:46:41;;;;;;;1.45;0.28;;;19.00;47.80;;;;;;6205463;22;20066;-76
2023/04/18 12:49:08;;;;;;;0.95;0.20;;;19.60;49.80;;;;;;6230085;22;20031;-78
2023/04/18 12:51:35;;;;;;;1.40;0.40;;;20.00;49.10;;;;;;6228701;22;20023;-77
2023/04/18 12:54:02;;;;;;;1.00;0.20;;;20.00;49.60;;;;;;6231091;22;20024;-78
2023/04/18 12:56:29;;;;;;;3.00;0.43;;;19.40;48.40;;;;;;6233375;22;20028;-77
2023/04/18 12:58:57;;;;;;;3.85;0.20;;;19.40;48.50;;;;;;6259197;22;20023;-76